sensor_id;sensor_type;location;lat;lon;timestamp;P1;durP1;ratioP1;P2;durP2;ratioP2
11598;SDS011;5855;48.840;9.188;2023-04-03T00:00:30;3.72;;;2.38;;
11598;SDS011;5855;48.840;9.188;2023-04-03T00:02:57;2.88;;;2.20;;
11598;SDS011;5855;48.840;9.188;2023-04-03T00:05:26;2.28;;;2.08;;
11598;SDS011;5855;48.840;9.188;2023-04-03T00:07:53;2.20;;;2.00;;
11598;SDS011;5855;48.840;9.188;2023-04-03T00:10:20;2.28;;;2.08;;
11598;SDS011;5855;48.840;9.188;2023-04-03T00:12:46;2.45;;;2.08;;
11598;SDS011;5855;48.840;9.188;2023-04-03T00:15:13;2.72;;;2.25;;
11598;SDS011;5855;48.840;9.188;2023-04-03T00:17:40;3.15;;;2.40;;
11598;SDS011;5855;48.840;9.188;2023-04-03T00:20:07;2.33;;;2.05;;
11598;SDS011;5855;48.840;9.188;2023-04-03T00:22:36;2.65;;;2.20;;
11598;SDS011;5855;48.840;9.188;2023-04-03T00:25:03;2.20;;;2.00;;
11598;SDS011;5855;48.840;9.188;2023-04-03T00:27:30;2.33;;;2.13;;
11598;SDS011;5855;48.840;9.188;2023-04-03T00:29:57;2.90;;;2.25;;
11598;SDS011;5855;48.840;9.188;2023-04-03T00:32:24;3.65;;;2.20;;
11598;SDS011;5855;48.840;9.188;2023-04-03T00:34:51;3.03;;;2.33;;
11598;SDS011;5855;48.840;9.188;2023-04-03T00:37:18;2.70;;;2.10;;
11598;SDS011;5855;48.840;9.188;2023-04-03T00:39:46;2.50;;;2.30;;
11598;SDS011;5855;48.840;9.188;2023-04-03T00:42:13;2.78;;;2.08;;
11598;SDS011;5855;48.840;9.188;2023-04-03T00:47:44;2.90;;;2.20;;
11598;SDS011;5855;48.840;9.188;2023-04-03T00:50:11;3.03;;;2.20;;
11598;SDS011;5855;48.840;9.188;2023-04-03T00:52:38;2.80;;;2.10;;
11598;SDS011;5855;48.840;9.188;2023-04-03T00:55:07;2.75;;;2.22;;
11598;SDS011;5855;48.840;9.188;2023-04-03T00:57:35;2.67;;;2.30;;
11598;SDS011;5855;48.840;9.188;2023-04-03T01:00:03;3.20;;;2.25;;
11598;SDS011;5855;48.840;9.188;2023-04-03T01:02:34;2.70;;;2.30;;
11598;SDS011;5855;48.840;9.188;2023-04-03T01:05:02;3.30;;;2.20;;
11598;SDS011;5855;48.840;9.188;2023-04-03T01:07:30;3.95;;;2.33;;
11598;SDS011;5855;48.840;9.188;2023-04-03T01:09:59;2.58;;;2.22;;
11598;SDS011;5855;48.840;9.188;2023-04-03T01:12:29;2.60;;;2.28;;
11598;SDS011;5855;48.840;9.188;2023-04-03T01:14:59;3.25;;;2.03;;
11598;SDS011;5855;48.840;9.188;2023-04-03T01:17:28;3.20;;;2.30;;
11598;SDS011;5855;48.840;9.188;2023-04-03T01:20:00;2.33;;;2.13;;
11598;SDS011;5855;48.840;9.188;2023-04-03T01:22:48;3.10;;;2.60;;
11598;SDS011;5855;48.840;9.188;2023-04-03T01:25:22;2.95;;;2.50;;
11598;SDS011;5855;48.840;9.188;2023-04-03T01:27:50;3.00;;;2.45;;
11598;SDS011;5855;48.840;9.188;2023-04-03T01:30:18;3.63;;;2.30;;
11598;SDS011;5855;48.840;9.188;2023-04-03T01:32:48;2.97;;;2.30;;
11598;SDS011;5855;48.840;9.188;2023-04-03T01:35:15;3.72;;;2.42;;
11598;SDS011;5855;48.840;9.188;2023-04-03T01:37:42;2.47;;;2.17;;
11598;SDS011;5855;48.840;9.188;2023-04-03T01:40:09;3.15;;;2.40;;
11598;SDS011;5855;48.840;9.188;2023-04-03T01:42:36;2.60;;;2.30;;
11598;SDS011;5855;48.840;9.188;2023-04-03T01:45:03;2.63;;;2.40;;
11598;SDS011;5855;48.840;9.188;2023-04-03T01:47:30;3.58;;;2.47;;
11598;SDS011;5855;48.840;9.188;2023-04-03T01:49:58;2.50;;;2.30;;
11598;SDS011;5855;48.840;9.188;2023-04-03T01:52:25;4.10;;;2.53;;
11598;SDS011;5855;48.840;9.188;2023-04-03T01:54:52;2.75;;;2.38;;
11598;SDS011;5855;48.840;9.188;2023-04-03T01:57:19;2.70;;;2.50;;
11598;SDS011;5855;48.840;9.188;2023-04-03T01:59:46;3.03;;;2.55;;
11598;SDS011;5855;48.840;9.188;2023-04-03T02:02:12;3.30;;;2.65;;
11598;SDS011;5855;48.840;9.188;2023-04-03T02:04:39;3.88;;;2.40;;
11598;SDS011;5855;48.840;9.188;2023-04-03T02:07:08;4.45;;;2.70;;
11598;SDS011;5855;48.840;9.188;2023-04-03T02:09:35;2.60;;;2.40;;
11598;SDS011;5855;48.840;9.188;2023-04-03T02:12:01;3.38;;;2.45;;
11598;SDS011;5855;48.840;9.188;2023-04-03T02:14:28;3.05;;;2.42;;
11598;SDS011;5855;48.840;9.188;2023-04-03T02:16:55;2.67;;;2.47;;
11598;SDS011;5855;48.840;9.188;2023-04-03T02:19:22;3.15;;;2.33;;
11598;SDS011;5855;48.840;9.188;2023-04-03T02:21:49;3.88;;;2.65;;
11598;SDS011;5855;48.840;9.188;2023-04-03T02:24:17;2.40;;;2.20;;
11598;SDS011;5855;48.840;9.188;2023-04-03T02:26:44;3.13;;;2.40;;
11598;SDS011;5855;48.840;9.188;2023-04-03T02:29:10;2.75;;;2.50;;
11598;SDS011;5855;48.840;9.188;2023-04-03T02:31:37;4.25;;;2.53;;
11598;SDS011;5855;48.840;9.188;2023-04-03T02:34:04;2.70;;;2.50;;
11598;SDS011;5855;48.840;9.188;2023-04-03T02:36:31;2.50;;;2.30;;
11598;SDS011;5855;48.840;9.188;2023-04-03T02:38:58;2.33;;;2.13;;
11598;SDS011;5855;48.840;9.188;2023-04-03T02:41:26;2.83;;;2.25;;
11598;SDS011;5855;48.840;9.188;2023-04-03T02:43:59;2.58;;;2.38;;
11598;SDS011;5855;48.840;9.188;2023-04-03T02:46:26;2.35;;;2.15;;
11598;SDS011;5855;48.840;9.188;2023-04-03T02:48:53;3.38;;;2.47;;
11598;SDS011;5855;48.840;9.188;2023-04-03T02:51:20;2.60;;;2.20;;
11598;SDS011;5855;48.840;9.188;2023-04-03T02:53:47;2.95;;;2.35;;
11598;SDS011;5855;48.840;9.188;2023-04-03T02:56:14;4.13;;;2.38;;
11598;SDS011;5855;48.840;9.188;2023-04-03T02:58:43;2.40;;;2.20;;
11598;SDS011;5855;48.840;9.188;2023-04-03T03:01:10;2.53;;;2.10;;
11598;SDS011;5855;48.840;9.188;2023-04-03T03:03:37;2.08;;;1.98;;
11598;SDS011;5855;48.840;9.188;2023-04-03T03:06:05;3.72;;;2.00;;
11598;SDS011;5855;48.840;9.188;2023-04-03T03:08:33;2.85;;;2.03;;
11598;SDS011;5855;48.840;9.188;2023-04-03T03:11:01;2.30;;;2.10;;
11598;SDS011;5855;48.840;9.188;2023-04-03T03:13:28;2.60;;;2.30;;
11598;SDS011;5855;48.840;9.188;2023-04-03T03:15:57;3.10;;;2.00;;
11598;SDS011;5855;48.840;9.188;2023-04-03T03:18:24;2.20;;;2.00;;
11598;SDS011;5855;48.840;9.188;2023-04-03T03:20:51;2.53;;;2.00;;
11598;SDS011;5855;48.840;9.188;2023-04-03T03:23:18;2.20;;;2.00;;
11598;SDS011;5855;48.840;9.188;2023-04-03T03:25:45;2.85;;;2.10;;
11598;SDS011;5855;48.840;9.188;2023-04-03T03:28:12;2.75;;;2.05;;
11598;SDS011;5855;48.840;9.188;2023-04-03T03:30:39;2.97;;;2.35;;
11598;SDS011;5855;48.840;9.188;2023-04-03T03:33:07;2.88;;;2.38;;
11598;SDS011;5855;48.840;9.188;2023-04-03T03:35:34;3.67;;;2.20;;
11598;SDS011;5855;48.840;9.188;2023-04-03T03:38:01;4.80;;;2.20;;
11598;SDS011;5855;48.840;9.188;2023-04-03T03:40:27;2.38;;;2.17;;
11598;SDS011;5855;48.840;9.188;2023-04-03T03:42:54;2.47;;;2.17;;
11598;SDS011;5855;48.840;9.188;2023-04-03T03:45:21;2.90;;;2.20;;
11598;SDS011;5855;48.840;9.188;2023-04-03T03:47:48;3.40;;;2.30;;
11598;SDS011;5855;48.840;9.188;2023-04-03T03:50:16;2.00;;;1.80;;
11598;SDS011;5855;48.840;9.188;2023-04-03T03:52:43;2.95;;;2.17;;
11598;SDS011;5855;48.840;9.188;2023-04-03T03:55:11;2.60;;;2.20;;
11598;SDS011;5855;48.840;9.188;2023-04-03T03:57:38;2.47;;;2.25;;
11598;SDS011;5855;48.840;9.188;2023-04-03T04:00:05;3.30;;;2.10;;
11598;SDS011;5855;48.840;9.188;2023-04-03T04:02:33;4.03;;;2.35;;
11598;SDS011;5855;48.840;9.188;2023-04-03T04:05:00;1.80;;;1.70;;
11598;SDS011;5855;48.840;9.188;2023-04-03T04:07:28;2.10;;;1.90;;
11598;SDS011;5855;48.840;9.188;2023-04-03T04:09:55;2.45;;;2.05;;
11598;SDS011;5855;48.840;9.188;2023-04-03T04:12:22;2.20;;;2.00;;
11598;SDS011;5855;48.840;9.188;2023-04-03T04:14:49;2.30;;;2.10;;
11598;SDS011;5855;48.840;9.188;2023-04-03T04:17:15;2.10;;;1.90;;
11598;SDS011;5855;48.840;9.188;2023-04-03T04:19:42;2.30;;;2.10;;
11598;SDS011;5855;48.840;9.188;2023-04-03T04:22:09;2.47;;;2.28;;
11598;SDS011;5855;48.840;9.188;2023-04-03T04:24:37;2.03;;;1.83;;
11598;SDS011;5855;48.840;9.188;2023-04-03T04:27:04;2.55;;;2.03;;
11598;SDS011;5855;48.840;9.188;2023-04-03T04:29:31;2.53;;;2.08;;
11598;SDS011;5855;48.840;9.188;2023-04-03T04:32:00;3.55;;;2.00;;
11598;SDS011;5855;48.840;9.188;2023-04-03T04:34:27;3.15;;;2.35;;
11598;SDS011;5855;48.840;9.188;2023-04-03T04:36:54;2.30;;;2.10;;
11598;SDS011;5855;48.840;9.188;2023-04-03T04:39:21;2.25;;;2.05;;
11598;SDS011;5855;48.840;9.188;2023-04-03T04:41:49;2.25;;;2.05;;
11598;SDS011;5855;48.840;9.188;2023-04-03T04:44:16;2.15;;;2.00;;
11598;SDS011;5855;48.840;9.188;2023-04-03T04:46:43;2.20;;;2.00;;
11598;SDS011;5855;48.840;9.188;2023-04-03T04:49:10;1.95;;;1.80;;
11598;SDS011;5855;48.840;9.188;2023-04-03T04:51:37;2.00;;;1.90;;
11598;SDS011;5855;48.840;9.188;2023-04-03T04:54:03;1.92;;;1.77;;
11598;SDS011;5855;48.840;9.188;2023-04-03T04:56:30;2.13;;;1.92;;
11598;SDS011;5855;48.840;9.188;2023-04-03T04:58:59;2.08;;;1.88;;
11598;SDS011;5855;48.840;9.188;2023-04-03T05:01:25;2.17;;;2.00;;
11598;SDS011;5855;48.840;9.188;2023-04-03T05:03:52;3.67;;;2.42;;
11598;SDS011;5855;48.840;9.188;2023-04-03T05:06:19;2.47;;;2.28;;
11598;SDS011;5855;48.840;9.188;2023-04-03T05:08:46;2.53;;;2.05;;
11598;SDS011;5855;48.840;9.188;2023-04-03T05:11:13;2.58;;;1.98;;
11598;SDS011;5855;48.840;9.188;2023-04-03T05:13:40;2.58;;;2.13;;
11598;SDS011;5855;48.840;9.188;2023-04-03T05:16:08;2.40;;;2.20;;
11598;SDS011;5855;48.840;9.188;2023-04-03T05:18:34;2.33;;;1.98;;
11598;SDS011;5855;48.840;9.188;2023-04-03T05:21:01;2.47;;;2.10;;
11598;SDS011;5855;48.840;9.188;2023-04-03T05:23:28;3.15;;;2.30;;
11598;SDS011;5855;48.840;9.188;2023-04-03T05:25:55;2.47;;;1.98;;
11598;SDS011;5855;48.840;9.188;2023-04-03T05:28:22;2.63;;;2.00;;
11598;SDS011;5855;48.840;9.188;2023-04-03T05:30:52;2.30;;;2.10;;
11598;SDS011;5855;48.840;9.188;2023-04-03T05:33:22;4.35;;;2.08;;
11598;SDS011;5855;48.840;9.188;2023-04-03T05:35:49;2.08;;;1.90;;
11598;SDS011;5855;48.840;9.188;2023-04-03T05:38:16;2.45;;;1.90;;
11598;SDS011;5855;48.840;9.188;2023-04-03T05:40:43;2.17;;;1.92;;
11598;SDS011;5855;48.840;9.188;2023-04-03T05:43:10;2.50;;;1.80;;
11598;SDS011;5855;48.840;9.188;2023-04-03T05:45:37;2.17;;;1.98;;
11598;SDS011;5855;48.840;9.188;2023-04-03T05:48:04;3.20;;;2.00;;
11598;SDS011;5855;48.840;9.188;2023-04-03T05:50:32;2.60;;;2.15;;
11598;SDS011;5855;48.840;9.188;2023-04-03T05:52:59;2.35;;;2.00;;
11598;SDS011;5855;48.840;9.188;2023-04-03T05:55:28;2.80;;;1.85;;
11598;SDS011;5855;48.840;9.188;2023-04-03T05:57:54;1.92;;;1.83;;
11598;SDS011;5855;48.840;9.188;2023-04-03T06:00:21;2.40;;;1.90;;
11598;SDS011;5855;48.840;9.188;2023-04-03T06:02:48;2.50;;;2.00;;
11598;SDS011;5855;48.840;9.188;2023-04-03T06:05:15;3.72;;;2.00;;
11598;SDS011;5855;48.840;9.188;2023-04-03T06:07:43;2.53;;;1.98;;
11598;SDS011;5855;48.840;9.188;2023-04-03T06:10:11;2.25;;;2.05;;
11598;SDS011;5855;48.840;9.188;2023-04-03T06:12:38;2.08;;;1.95;;
11598;SDS011;5855;48.840;9.188;2023-04-03T06:15:05;1.80;;;1.70;;
11598;SDS011;5855;48.840;9.188;2023-04-03T06:17:35;3.35;;;1.90;;
11598;SDS011;5855;48.840;9.188;2023-04-03T06:20:02;2.80;;;2.00;;
11598;SDS011;5855;48.840;9.188;2023-04-03T06:22:29;5.57;;;2.05;;
11598;SDS011;5855;48.840;9.188;2023-04-03T06:24:57;2.25;;;2.05;;
11598;SDS011;5855;48.840;9.188;2023-04-03T06:27:24;2.10;;;1.88;;
11598;SDS011;5855;48.840;9.188;2023-04-03T06:29:51;2.53;;;2.00;;
11598;SDS011;5855;48.840;9.188;2023-04-03T06:32:18;2.58;;;2.00;;
11598;SDS011;5855;48.840;9.188;2023-04-03T06:34:45;2.38;;;1.90;;
11598;SDS011;5855;48.840;9.188;2023-04-03T06:37:13;2.92;;;1.90;;
11598;SDS011;5855;48.840;9.188;2023-04-03T06:39:42;2.03;;;1.83;;
11598;SDS011;5855;48.840;9.188;2023-04-03T06:42:11;3.67;;;2.33;;
11598;SDS011;5855;48.840;9.188;2023-04-03T06:44:38;2.90;;;1.95;;
11598;SDS011;5855;48.840;9.188;2023-04-03T06:47:05;2.38;;;1.90;;
11598;SDS011;5855;48.840;9.188;2023-04-03T06:49:33;2.90;;;2.13;;
11598;SDS011;5855;48.840;9.188;2023-04-03T06:52:02;4.13;;;2.10;;
11598;SDS011;5855;48.840;9.188;2023-04-03T06:54:29;2.78;;;2.28;;
11598;SDS011;5855;48.840;9.188;2023-04-03T06:56:56;2.90;;;2.10;;
11598;SDS011;5855;48.840;9.188;2023-04-03T06:59:24;3.47;;;2.03;;
11598;SDS011;5855;48.840;9.188;2023-04-03T07:01:51;3.33;;;2.08;;
11598;SDS011;5855;48.840;9.188;2023-04-03T07:04:18;3.20;;;2.15;;
11598;SDS011;5855;48.840;9.188;2023-04-03T07:06:45;3.60;;;2.10;;
11598;SDS011;5855;48.840;9.188;2023-04-03T07:09:12;3.55;;;2.22;;
11598;SDS011;5855;48.840;9.188;2023-04-03T07:11:39;4.95;;;2.25;;
11598;SDS011;5855;48.840;9.188;2023-04-03T07:14:06;3.42;;;1.90;;
11598;SDS011;5855;48.840;9.188;2023-04-03T07:16:35;4.63;;;2.22;;
11598;SDS011;5855;48.840;9.188;2023-04-03T07:19:02;3.22;;;2.08;;
11598;SDS011;5855;48.840;9.188;2023-04-03T07:21:29;3.97;;;2.10;;
11598;SDS011;5855;48.840;9.188;2023-04-03T07:23:56;2.53;;;2.13;;
11598;SDS011;5855;48.840;9.188;2023-04-03T07:26:23;2.22;;;1.88;;
11598;SDS011;5855;48.840;9.188;2023-04-03T07:28:50;3.13;;;1.80;;
11598;SDS011;5855;48.840;9.188;2023-04-03T07:31:17;3.30;;;2.55;;
11598;SDS011;5855;48.840;9.188;2023-04-03T07:33:45;4.47;;;2.20;;
11598;SDS011;5855;48.840;9.188;2023-04-03T07:36:14;4.63;;;2.50;;
11598;SDS011;5855;48.840;9.188;2023-04-03T07:38:42;2.38;;;1.90;;
11598;SDS011;5855;48.840;9.188;2023-04-03T07:41:10;2.42;;;2.22;;
11598;SDS011;5855;48.840;9.188;2023-04-03T07:43:40;2.20;;;2.00;;
11598;SDS011;5855;48.840;9.188;2023-04-03T07:46:07;2.53;;;1.90;;
11598;SDS011;5855;48.840;9.188;2023-04-03T07:48:34;3.58;;;2.30;;
11598;SDS011;5855;48.840;9.188;2023-04-03T07:51:03;4.00;;;2.17;;
11598;SDS011;5855;48.840;9.188;2023-04-03T07:53:31;2.08;;;1.90;;
11598;SDS011;5855;48.840;9.188;2023-04-03T07:55:58;2.58;;;1.85;;
11598;SDS011;5855;48.840;9.188;2023-04-03T07:58:27;4.78;;;2.30;;
11598;SDS011;5855;48.840;9.188;2023-04-03T08:00:54;2.90;;;1.90;;
11598;SDS011;5855;48.840;9.188;2023-04-03T08:03:21;2.80;;;2.20;;
11598;SDS011;5855;48.840;9.188;2023-04-03T08:05:48;2.70;;;2.38;;
11598;SDS011;5855;48.840;9.188;2023-04-03T08:08:18;2.45;;;2.03;;
11598;SDS011;5855;48.840;9.188;2023-04-03T08:10:48;2.80;;;2.20;;
11598;SDS011;5855;48.840;9.188;2023-04-03T08:13:16;5.45;;;2.33;;
11598;SDS011;5855;48.840;9.188;2023-04-03T08:15:43;3.03;;;2.10;;
11598;SDS011;5855;48.840;9.188;2023-04-03T08:18:10;4.90;;;2.33;;
11598;SDS011;5855;48.840;9.188;2023-04-03T08:20:37;2.95;;;2.30;;
11598;SDS011;5855;48.840;9.188;2023-04-03T08:23:05;3.22;;;2.20;;
11598;SDS011;5855;48.840;9.188;2023-04-03T08:25:33;3.67;;;2.30;;
11598;SDS011;5855;48.840;9.188;2023-04-03T08:28:03;4.47;;;1.85;;
11598;SDS011;5855;48.840;9.188;2023-04-03T08:30:30;3.85;;;2.30;;
11598;SDS011;5855;48.840;9.188;2023-04-03T08:32:57;2.13;;;1.83;;
11598;SDS011;5855;48.840;9.188;2023-04-03T08:35:26;2.70;;;2.10;;
11598;SDS011;5855;48.840;9.188;2023-04-03T08:37:53;3.45;;;1.83;;
11598;SDS011;5855;48.840;9.188;2023-04-03T08:40:20;2.20;;;1.85;;
11598;SDS011;5855;48.840;9.188;2023-04-03T08:42:59;2.97;;;2.05;;
11598;SDS011;5855;48.840;9.188;2023-04-03T08:45:42;3.00;;;1.77;;
11598;SDS011;5855;48.840;9.188;2023-04-03T08:48:13;3.53;;;1.70;;
11598;SDS011;5855;48.840;9.188;2023-04-03T08:50:46;3.08;;;2.00;;
11598;SDS011;5855;48.840;9.188;2023-04-03T08:53:17;4.47;;;2.22;;
11598;SDS011;5855;48.840;9.188;2023-04-03T08:55:46;3.92;;;2.10;;
11598;SDS011;5855;48.840;9.188;2023-04-03T08:58:18;2.47;;;1.88;;
11598;SDS011;5855;48.840;9.188;2023-04-03T09:00:47;3.13;;;1.98;;
11598;SDS011;5855;48.840;9.188;2023-04-03T09:03:17;2.50;;;1.98;;
11598;SDS011;5855;48.840;9.188;2023-04-03T09:05:47;3.15;;;2.03;;
11598;SDS011;5855;48.840;9.188;2023-04-03T09:08:21;2.47;;;1.92;;
11598;SDS011;5855;48.840;9.188;2023-04-03T09:10:51;3.60;;;2.08;;
11598;SDS011;5855;48.840;9.188;2023-04-03T09:13:29;4.00;;;1.98;;
11598;SDS011;5855;48.840;9.188;2023-04-03T09:16:02;3.25;;;2.20;;
11598;SDS011;5855;48.840;9.188;2023-04-03T09:18:32;3.17;;;1.73;;
11598;SDS011;5855;48.840;9.188;2023-04-03T09:21:08;4.03;;;1.90;;
11598;SDS011;5855;48.840;9.188;2023-04-03T09:23:43;3.65;;;2.05;;
11598;SDS011;5855;48.840;9.188;2023-04-03T09:26:13;3.58;;;2.10;;
11598;SDS011;5855;48.840;9.188;2023-04-03T09:28:45;2.45;;;1.88;;
11598;SDS011;5855;48.840;9.188;2023-04-03T09:31:17;4.45;;;1.90;;
11598;SDS011;5855;48.840;9.188;2023-04-03T09:33:47;2.88;;;1.80;;
11598;SDS011;5855;48.840;9.188;2023-04-03T09:39:05;4.72;;;1.98;;
11598;SDS011;5855;48.840;9.188;2023-04-03T09:41:35;2.17;;;1.83;;
11598;SDS011;5855;48.840;9.188;2023-04-03T09:44:17;2.80;;;2.08;;
11598;SDS011;5855;48.840;9.188;2023-04-03T09:46:48;2.65;;;1.75;;
11598;SDS011;5855;48.840;9.188;2023-04-03T09:49:15;3.42;;;1.88;;
11598;SDS011;5855;48.840;9.188;2023-04-03T09:51:44;3.15;;;1.70;;
11598;SDS011;5855;48.840;9.188;2023-04-03T09:57:07;2.83;;;1.90;;
11598;SDS011;5855;48.840;9.188;2023-04-03T09:59:38;2.38;;;1.73;;
11598;SDS011;5855;48.840;9.188;2023-04-03T10:05:02;3.65;;;1.67;;
11598;SDS011;5855;48.840;9.188;2023-04-03T10:07:32;3.63;;;1.75;;
11598;SDS011;5855;48.840;9.188;2023-04-03T10:10:00;4.45;;;1.85;;
11598;SDS011;5855;48.840;9.188;2023-04-03T10:12:30;2.67;;;1.95;;
11598;SDS011;5855;48.840;9.188;2023-04-03T10:14:58;3.88;;;1.98;;
11598;SDS011;5855;48.840;9.188;2023-04-03T10:17:30;2.78;;;1.75;;
11598;SDS011;5855;48.840;9.188;2023-04-03T10:20:06;2.95;;;1.85;;
11598;SDS011;5855;48.840;9.188;2023-04-03T10:22:44;3.15;;;1.65;;
11598;SDS011;5855;48.840;9.188;2023-04-03T10:25:21;3.35;;;1.80;;
11598;SDS011;5855;48.840;9.188;2023-04-03T10:27:55;2.55;;;1.70;;
11598;SDS011;5855;48.840;9.188;2023-04-03T10:30:34;3.95;;;1.70;;
11598;SDS011;5855;48.840;9.188;2023-04-03T10:36:02;3.25;;;1.73;;
11598;SDS011;5855;48.840;9.188;2023-04-03T10:38:41;2.80;;;1.90;;
11598;SDS011;5855;48.840;9.188;2023-04-03T10:41:15;2.67;;;2.00;;
11598;SDS011;5855;48.840;9.188;2023-04-03T10:43:50;2.42;;;1.60;;
11598;SDS011;5855;48.840;9.188;2023-04-03T10:46:26;3.58;;;1.80;;
11598;SDS011;5855;48.840;9.188;2023-04-03T10:49:01;2.03;;;1.60;;
11598;SDS011;5855;48.840;9.188;2023-04-03T10:51:39;2.35;;;1.60;;
11598;SDS011;5855;48.840;9.188;2023-04-03T10:54:11;3.33;;;1.80;;
11598;SDS011;5855;48.840;9.188;2023-04-03T10:56:42;2.50;;;1.70;;
11598;SDS011;5855;48.840;9.188;2023-04-03T10:59:16;2.85;;;1.55;;
11598;SDS011;5855;48.840;9.188;2023-04-03T11:01:51;2.65;;;1.65;;
11598;SDS011;5855;48.840;9.188;2023-04-03T11:04:21;2.25;;;1.50;;
11598;SDS011;5855;48.840;9.188;2023-04-03T11:06:54;2.78;;;1.50;;
11598;SDS011;5855;48.840;9.188;2023-04-03T11:09:26;1.80;;;1.25;;
11598;SDS011;5855;48.840;9.188;2023-04-03T11:11:55;2.42;;;1.40;;
11598;SDS011;5855;48.840;9.188;2023-04-03T11:14:28;2.67;;;1.40;;
11598;SDS011;5855;48.840;9.188;2023-04-03T11:17:04;1.40;;;1.20;;
11598;SDS011;5855;48.840;9.188;2023-04-03T11:19:41;2.55;;;1.60;;
11598;SDS011;5855;48.840;9.188;2023-04-03T11:22:16;3.30;;;1.77;;
11598;SDS011;5855;48.840;9.188;2023-04-03T11:24:52;2.88;;;1.55;;
11598;SDS011;5855;48.840;9.188;2023-04-03T11:27:25;2.58;;;1.40;;
11598;SDS011;5855;48.840;9.188;2023-04-03T11:29:55;2.30;;;1.70;;
11598;SDS011;5855;48.840;9.188;2023-04-03T11:32:33;2.83;;;1.55;;
11598;SDS011;5855;48.840;9.188;2023-04-03T11:35:14;2.30;;;1.55;;
11598;SDS011;5855;48.840;9.188;2023-04-03T11:37:44;2.22;;;1.63;;
11598;SDS011;5855;48.840;9.188;2023-04-03T11:40:19;2.70;;;1.70;;
11598;SDS011;5855;48.840;9.188;2023-04-03T11:42:48;2.30;;;1.67;;
11598;SDS011;5855;48.840;9.188;2023-04-03T11:45:27;3.83;;;1.80;;
11598;SDS011;5855;48.840;9.188;2023-04-03T11:48:01;3.65;;;1.75;;
11598;SDS011;5855;48.840;9.188;2023-04-03T11:50:43;2.50;;;1.42;;
11598;SDS011;5855;48.840;9.188;2023-04-03T11:53:27;2.58;;;1.52;;
11598;SDS011;5855;48.840;9.188;2023-04-03T11:56:03;3.33;;;2.00;;
11598;SDS011;5855;48.840;9.188;2023-04-03T11:58:53;2.92;;;1.90;;
11598;SDS011;5855;48.840;9.188;2023-04-03T12:01:44;2.88;;;1.70;;
11598;SDS011;5855;48.840;9.188;2023-04-03T12:04:14;2.97;;;1.42;;
11598;SDS011;5855;48.840;9.188;2023-04-03T12:06:50;2.15;;;1.65;;
11598;SDS011;5855;48.840;9.188;2023-04-03T12:09:28;2.22;;;1.30;;
11598;SDS011;5855;48.840;9.188;2023-04-03T12:12:25;1.90;;;1.30;;
11598;SDS011;5855;48.840;9.188;2023-04-03T12:21:19;2.25;;;1.48;;
11598;SDS011;5855;48.840;9.188;2023-04-03T12:23:56;2.55;;;1.60;;
11598;SDS011;5855;48.840;9.188;2023-04-03T12:26:26;2.25;;;1.67;;
11598;SDS011;5855;48.840;9.188;2023-04-03T12:28:56;2.67;;;1.55;;
11598;SDS011;5855;48.840;9.188;2023-04-03T12:31:24;2.33;;;1.60;;
11598;SDS011;5855;48.840;9.188;2023-04-03T12:34:10;1.58;;;1.38;;
11598;SDS011;5855;48.840;9.188;2023-04-03T12:36:48;3.80;;;1.70;;
11598;SDS011;5855;48.840;9.188;2023-04-03T12:39:33;1.80;;;1.52;;
11598;SDS011;5855;48.840;9.188;2023-04-03T12:42:20;3.35;;;1.70;;
11598;SDS011;5855;48.840;9.188;2023-04-03T12:44:59;2.67;;;1.60;;
11598;SDS011;5855;48.840;9.188;2023-04-03T12:47:33;2.92;;;1.77;;
11598;SDS011;5855;48.840;9.188;2023-04-03T12:50:03;3.63;;;1.63;;
11598;SDS011;5855;48.840;9.188;2023-04-03T12:52:44;1.40;;;1.25;;
11598;SDS011;5855;48.840;9.188;2023-04-03T12:55:15;3.58;;;1.80;;
11598;SDS011;5855;48.840;9.188;2023-04-03T12:57:43;2.67;;;1.75;;
11598;SDS011;5855;48.840;9.188;2023-04-03T13:00:30;2.08;;;1.65;;
11598;SDS011;5855;48.840;9.188;2023-04-03T13:02:59;2.13;;;1.50;;
11598;SDS011;5855;48.840;9.188;2023-04-03T13:05:27;2.63;;;1.60;;
11598;SDS011;5855;48.840;9.188;2023-04-03T13:07:57;2.30;;;1.70;;
11598;SDS011;5855;48.840;9.188;2023-04-03T13:10:26;2.35;;;1.20;;
11598;SDS011;5855;48.840;9.188;2023-04-03T13:12:54;3.38;;;1.52;;
11598;SDS011;5855;48.840;9.188;2023-04-03T13:15:24;3.53;;;1.50;;
11598;SDS011;5855;48.840;9.188;2023-04-03T13:17:53;2.50;;;1.58;;
11598;SDS011;5855;48.840;9.188;2023-04-03T13:20:22;1.48;;;1.30;;
11598;SDS011;5855;48.840;9.188;2023-04-03T13:22:52;2.05;;;1.42;;
11598;SDS011;5855;48.840;9.188;2023-04-03T13:25:24;1.60;;;1.50;;
11598;SDS011;5855;48.840;9.188;2023-04-03T13:27:55;1.95;;;1.58;;
11598;SDS011;5855;48.840;9.188;2023-04-03T13:30:25;3.53;;;1.65;;
11598;SDS011;5855;48.840;9.188;2023-04-03T13:32:56;1.77;;;1.30;;
11598;SDS011;5855;48.840;9.188;2023-04-03T13:35:32;1.50;;;1.27;;
11598;SDS011;5855;48.840;9.188;2023-04-03T13:38:04;2.65;;;1.70;;
11598;SDS011;5855;48.840;9.188;2023-04-03T13:40:47;2.60;;;1.58;;
11598;SDS011;5855;48.840;9.188;2023-04-03T13:43:18;2.15;;;1.60;;
11598;SDS011;5855;48.840;9.188;2023-04-03T13:45:56;1.90;;;1.50;;
11598;SDS011;5855;48.840;9.188;2023-04-03T13:48:25;3.25;;;1.60;;
11598;SDS011;5855;48.840;9.188;2023-04-03T13:50:57;2.03;;;1.50;;
11598;SDS011;5855;48.840;9.188;2023-04-03T13:53:28;1.60;;;1.45;;
11598;SDS011;5855;48.840;9.188;2023-04-03T13:58:58;1.60;;;1.50;;
11598;SDS011;5855;48.840;9.188;2023-04-03T14:01:32;3.55;;;1.50;;
11598;SDS011;5855;48.840;9.188;2023-04-03T14:04:10;1.50;;;1.40;;
11598;SDS011;5855;48.840;9.188;2023-04-03T14:06:38;2.63;;;1.50;;
11598;SDS011;5855;48.840;9.188;2023-04-03T14:09:07;3.30;;;1.75;;
11598;SDS011;5855;48.840;9.188;2023-04-03T14:11:34;2.88;;;1.40;;
11598;SDS011;5855;48.840;9.188;2023-04-03T14:14:02;2.20;;;1.60;;
11598;SDS011;5855;48.840;9.188;2023-04-03T14:16:32;2.10;;;1.50;;
11598;SDS011;5855;48.840;9.188;2023-04-03T14:19:05;4.05;;;1.55;;
11598;SDS011;5855;48.840;9.188;2023-04-03T14:21:32;2.97;;;1.58;;
11598;SDS011;5855;48.840;9.188;2023-04-03T14:23:59;3.05;;;1.70;;
11598;SDS011;5855;48.840;9.188;2023-04-03T14:26:28;3.10;;;1.70;;
11598;SDS011;5855;48.840;9.188;2023-04-03T14:28:55;2.55;;;1.40;;
11598;SDS011;5855;48.840;9.188;2023-04-03T14:31:22;2.80;;;1.40;;
11598;SDS011;5855;48.840;9.188;2023-04-03T14:33:50;2.03;;;1.60;;
11598;SDS011;5855;48.840;9.188;2023-04-03T14:36:17;2.17;;;1.52;;
11598;SDS011;5855;48.840;9.188;2023-04-03T14:38:46;1.75;;;1.45;;
11598;SDS011;5855;48.840;9.188;2023-04-03T14:41:14;3.08;;;1.73;;
11598;SDS011;5855;48.840;9.188;2023-04-03T14:43:45;3.40;;;2.17;;
11598;SDS011;5855;48.840;9.188;2023-04-03T14:46:13;2.80;;;2.10;;
11598;SDS011;5855;48.840;9.188;2023-04-03T14:48:42;2.08;;;1.75;;
11598;SDS011;5855;48.840;9.188;2023-04-03T14:51:10;1.85;;;1.52;;
11598;SDS011;5855;48.840;9.188;2023-04-03T14:53:38;3.13;;;1.65;;
11598;SDS011;5855;48.840;9.188;2023-04-03T14:56:10;3.88;;;1.70;;
11598;SDS011;5855;48.840;9.188;2023-04-03T14:58:38;3.28;;;1.85;;
11598;SDS011;5855;48.840;9.188;2023-04-03T15:01:06;2.60;;;1.38;;
11598;SDS011;5855;48.840;9.188;2023-04-03T15:03:35;1.63;;;1.50;;
11598;SDS011;5855;48.840;9.188;2023-04-03T15:06:02;2.38;;;1.60;;
11598;SDS011;5855;48.840;9.188;2023-04-03T15:08:29;1.90;;;1.52;;
11598;SDS011;5855;48.840;9.188;2023-04-03T15:10:56;2.63;;;1.65;;
11598;SDS011;5855;48.840;9.188;2023-04-03T15:13:24;1.85;;;1.40;;
11598;SDS011;5855;48.840;9.188;2023-04-03T15:15:51;3.63;;;1.52;;
11598;SDS011;5855;48.840;9.188;2023-04-03T15:18:21;2.35;;;1.40;;
11598;SDS011;5855;48.840;9.188;2023-04-03T15:20:51;3.45;;;1.83;;
11598;SDS011;5855;48.840;9.188;2023-04-03T15:23:18;2.53;;;1.70;;
11598;SDS011;5855;48.840;9.188;2023-04-03T15:25:46;2.78;;;1.85;;
11598;SDS011;5855;48.840;9.188;2023-04-03T15:28:18;3.10;;;1.60;;
11598;SDS011;5855;48.840;9.188;2023-04-03T15:30:48;2.70;;;1.48;;
11598;SDS011;5855;48.840;9.188;2023-04-03T15:33:15;1.80;;;1.50;;
11598;SDS011;5855;48.840;9.188;2023-04-03T15:35:43;3.00;;;1.80;;
11598;SDS011;5855;48.840;9.188;2023-04-03T15:38:10;2.40;;;1.70;;